Istrana Airport LIPS

Flugplatz Daten

Name: Istrana Airport

Ident: LIPS

Lat: 45,68489838

Long: 12,08290005

Platzhöhe: 137 ft

IataCode:

City: Istrana

Metar

2021/12/03 23:55
LIPS 032355Z 05005KT 9999 SCT070 03/01 Q1015 RMK SCT VIS MIN 9999 WIND THR26 05005KT WIND THR08 05005KT BLK BLU

Taf

2020/04/14 06:24
TAF TAF LIPS 140800Z 1406/1418 05010KT CAVOK
Gewünschte Webcam nicht vorhanden? Dann fügen Sie eine hinzu. Sie wird dann so schnell wie möglich freigeschaltet
Url: Title: